Time;durP1;ratioP1;P1;durP2;ratioP2;P2;SDS_P1;SDS_P2;PMS_P1;PMS_P2;Temp;Humidity;BMP_temperature;BMP_pressure;BME280_temperature;BME280_humidity;BME280_pressure;Samples;Min_cycle;Max_cycle;Signal;HPM_P1;HPM_P2
2022/02/24 00:00:16;;;;;;;;;;;;;;;;;;5052214;28;20351;-54
2022/02/24 00:02:43;;;;;;;;;;;;;;;;;;5051829;28;19925;-54
2022/02/24 00:05:10;;;;;;;;;;;;;;;;;;5051042;28;19939;-54
2022/02/24 00:07:37;;;;;;;;;;;5.60;99.90;;;;;;5051914;28;19933;-54
2022/02/24 00:10:04;;;;;;;;;;;;;;;;;;5052040;28;19929;-53
2022/02/24 00:12:31;;;;;;;;;;;;;;;;;;5051698;28;19994;-54
2022/02/24 00:14:58;;;;;;;;;;;;;;;;;;5051463;28;19924;-54
2022/02/24 00:17:26;;;;;;;;;;;5.30;99.90;;;;;;5051299;28;19991;-54
2022/02/24 00:19:54;;;;;;;;;;;;;;;;;;5051608;28;19978;-54
2022/02/24 00:22:21;;;;;;;;;;;;;;;;;;5051089;28;19935;-54
2022/02/24 00:24:49;;;;;;;;;;;5.30;99.90;;;;;;5050692;28;19932;-54
2022/02/24 00:27:16;;;;;;;;;;;;;;;;;;5051087;28;20020;-54
2022/02/24 00:29:43;;;;;;;;;;;;;;;;;;5051647;28;20002;-54
2022/02/24 00:32:10;;;;;;;;;;;;;;;;;;5051188;28;19951;-54
2022/02/24 00:34:37;;;;;;;;;;;;;;;;;;5051137;28;19928;-54
2022/02/24 00:37:04;;;;;;;;;;;;;;;;;;5050852;28;20020;-54
2022/02/24 00:39:31;;;;;;;;;;;;;;;;;;5050915;28;20001;-53
2022/02/24 00:41:58;;;;;;;;;;;;;;;;;;5050974;28;19932;-54
2022/02/24 00:44:25;;;;;;;;;;;;;;;;;;5050296;28;20303;-54
2022/02/24 00:46:52;;;;;;;;;;;;;;;;;;5050806;28;19969;-54
2022/02/24 00:49:20;;;;;;;;;;;3.80;99.90;;;;;;5050540;28;20339;-54
2022/02/24 00:51:47;;;;;;;;;;;;;;;;;;5049589;28;19929;-54
2022/02/24 00:54:15;;;;;;;;;;;;;;;;;;5050197;28;19994;-54
2022/02/24 00:56:42;;;;;;;;;;;;;;;;;;5049796;28;19931;-54
2022/02/24 00:59:09;;;;;;;;;;;;;;;;;;5050708;28;19925;-54
2022/02/24 01:01:36;;;;;;;;;;;;;;;;;;5052034;28;20346;-55
2022/02/24 01:04:03;;;;;;;;;;;;;;;;;;5050085;28;20267;-54
2022/02/24 01:06:30;;;;;;;;;;;;;;;;;;5050687;28;19929;-54
2022/02/24 01:08:57;;;;;;;;;;;;;;;;;;5050887;28;19979;-54
2022/02/24 01:11:24;;;;;;;;;;;;;;;;;;5050752;28;19925;-54
2022/02/24 01:13:51;;;;;;;;;;;;;;;;;;5050661;28;20006;-54
2022/02/24 01:16:18;;;;;;;;;;;;;;;;;;5050436;28;19924;-53
2022/02/24 01:18:45;;;;;;;;;;;;;;;;;;5050360;28;19924;-54
2022/02/24 01:21:12;;;;;;;;;;;;;;;;;;5050812;28;19982;-54
2022/02/24 01:23:40;;;;;;;;;;;4.30;99.90;;;;;;5050025;28;20392;-54
2022/02/24 01:26:07;;;;;;;;;;;;;;;;;;5049788;28;19925;-54
2022/02/24 01:28:34;;;;;;;;;;;;;;;;;;5050152;28;20302;-54
2022/02/24 01:31:01;;;;;;;;;;;;;;;;;;5050151;28;19928;-54
2022/02/24 01:33:28;;;;;;;;;;;;;;;;;;5049800;28;19925;-54
2022/02/24 01:35:55;;;;;;;;;;;4.60;99.90;;;;;;5050081;28;19991;-53
2022/02/24 01:38:22;;;;;;;;;;;;;;;;;;5049286;28;20015;-53
2022/02/24 01:40:50;;;;;;;;;;;4.30;99.90;;;;;;5049647;28;19936;-54
2022/02/24 01:43:17;;;;;;;;;;;;;;;;;;5048563;28;20341;-54
2022/02/24 01:45:44;;;;;;;;;;;;;;;;;;5049703;28;19924;-54
2022/02/24 01:48:11;;;;;;;;;;;;;;;;;;5049289;28;19983;-54
2022/02/24 01:50:39;;;;;;;;;;;;;;;;;;5049720;28;19999;-54
2022/02/24 01:53:06;;;;;;;;;;;;;;;;;;5049718;28;20435;-54
2022/02/24 01:55:33;;;;;;;;;;;;;;;;;;5049326;28;19979;-54
2022/02/24 01:58:00;;;;;;;;;;;;;;;;;;5049992;28;19924;-54
2022/02/24 02:00:27;;;;;;;;;;;;;;;;;;5049137;28;19929;-54
2022/02/24 02:02:55;;;;;;;;;;;3.80;99.90;;;;;;5049071;28;19997;-54
2022/02/24 02:05:22;;;;;;;;;;;;;;;;;;5049202;28;19936;-54
2022/02/24 02:07:49;;;;;;;;;;;;;;;;;;5048955;28;20368;-54
2022/02/24 02:10:16;;;;;;;;;;;;;;;;;;5049386;28;19928;-54
2022/02/24 02:12:43;;;;;;;;;;;;;;;;;;5049350;28;19987;-54
2022/02/24 02:15:10;;;;;;;;;;;;;;;;;;5047325;28;19986;-54
2022/02/24 02:17:37;;;;;;;;;;;;;;;;;;5049246;28;19925;-54
2022/02/24 02:20:04;;;;;;;;;;;;;;;;;;5049268;28;20304;-54
2022/02/24 02:22:31;;;;;;;;;;;;;;;;;;5049559;28;19971;-54
2022/02/24 02:24:58;;;;;;;;;;;;;;;;;;5047855;28;19990;-54
2022/02/24 02:27:25;;;;;;;;;;;;;;;;;;5048982;28;20346;-54
2022/02/24 02:29:52;;;;;;;;;;;;;;;;;;5048025;28;19929;-54
2022/02/24 02:32:20;;;;;;;;;;;4.40;99.90;;;;;;5048416;28;19928;-54
2022/02/24 02:34:47;;;;;;;;;;;4.10;99.90;;;;;;5048231;28;20281;-54
2022/02/24 02:37:14;;;;;;;;;;;;;;;;;;5048716;28;20324;-54
2022/02/24 02:39:41;;;;;;;;;;;3.80;99.90;;;;;;5048997;28;19971;-54
2022/02/24 02:42:08;;;;;;;;;;;;;;;;;;5048826;28;19932;-54
2022/02/24 02:44:35;;;;;;;;;;;;;;;;;;5047543;28;19999;-54
2022/02/24 02:47:02;;;;;;;;;;;;;;;;;;5048838;28;20497;-54
2022/02/24 02:49:30;;;;;;;;;;;3.60;99.90;;;;;;5048941;28;19979;-54
2022/02/24 02:51:57;;;;;;;;;;;3.80;99.90;;;;;;5047794;28;19933;-54
2022/02/24 02:54:24;;;;;;;;;;;;;;;;;;5048170;28;19939;-54
2022/02/24 02:56:51;;;;;;;;;;;3.70;99.90;;;;;;5048560;28;20414;-54
2022/02/24 02:59:19;;;;;;;;;;;;;;;;;;5047940;28;20012;-54
2022/02/24 03:01:46;;;;;;;;;;;;;;;;;;5042532;28;19925;-54
2022/02/24 03:04:13;;;;;;;;;;;;;;;;;;5048723;28;20422;-54
2022/02/24 03:06:40;;;;;;;;;;;;;;;;;;5048755;28;19925;-54
2022/02/24 03:09:07;;;;;;;;;;;;;;;;;;5047347;28;19987;-54
2022/02/24 03:11:34;;;;;;;;;;;;;;;;;;5036896;28;19982;-54
2022/02/24 03:14:01;;;;;;;;;;;;;;;;;;5048643;28;19931;-54
2022/02/24 03:16:28;;;;;;;;;;;;;;;;;;5048725;28;19991;-54
2022/02/24 03:18:55;;;;;;;;;;;;;;;;;;5048594;28;19924;-54
2022/02/24 03:21:22;;;;;;;;;;;;;;;;;;5049020;28;19924;-54
2022/02/24 03:23:50;;;;;;;;;;;;;;;;;;5034948;28;20426;-54
2022/02/24 03:26:17;;;;;;;;;;;;;;;;;;5046112;28;19935;-53
2022/02/24 03:28:45;;;;;;;;;;;4.70;99.90;;;;;;5048370;28;19932;-54
2022/02/24 03:31:12;;;;;;;;;;;;;;;;;;5048312;28;19978;-54
2022/02/24 03:33:39;;;;;;;;;;;;;;;;;;5048259;28;19925;-54
2022/02/24 03:36:06;;;;;;;;;;;;;;;;;;5048609;28;19924;-54
2022/02/24 03:38:33;;;;;;;;;;;4.30;99.90;;;;;;5048279;28;19928;-54
2022/02/24 03:41:00;;;;;;;;;;;;;;;;;;5048418;28;19925;-53
2022/02/24 03:43:26;;;;;;;;;;;3.70;99.90;;;;;;5048693;28;20366;-54
2022/02/24 03:45:53;;;;;;;;;;;;;;;;;;5048430;28;19983;-54
2022/02/24 03:48:20;;;;;;;;;;;;;;;;;;5048375;28;20350;-54
2022/02/24 03:50:49;;;;;;;;;;;3.30;99.90;;;;;;5046960;28;19928;-54
2022/02/24 03:53:17;;;;;;;;;;;;;;;;;;5048449;28;20406;-54
2022/02/24 03:55:44;;;;;;;;;;;;;;;;;;5048746;28;20002;-54
2022/02/24 03:58:11;;;;;;;;;;;;;;;;;;5048863;28;20234;-53
2022/02/24 04:00:38;;;;;;;;;;;;;;;;;;5048075;28;19925;-53
2022/02/24 04:03:04;;;;;;;;;;;3.40;99.90;;;;;;5048014;28;19994;-53
2022/02/24 04:05:31;;;;;;;;;;;;;;;;;;5047606;28;20039;-54
2022/02/24 04:07:58;;;;;;;;;;;;;;;;;;5048201;28;20391;-54
2022/02/24 04:10:26;;;;;;;;;;;2.90;99.90;;;;;;5048312;28;19925;-54
2022/02/24 04:12:53;;;;;;;;;;;2.80;99.90;;;;;;5047645;28;19967;-54
2022/02/24 04:15:20;;;;;;;;;;;;;;;;;;5048275;28;20334;-54
2022/02/24 04:17:47;;;;;;;;;;;2.90;99.90;;;;;;5048350;28;19971;-54
2022/02/24 04:20:14;;;;;;;;;;;;;;;;;;5047601;28;20023;-53
2022/02/24 04:22:41;;;;;;;;;;;;;;;;;;5047925;28;19925;-54
2022/02/24 04:25:08;;;;;;;;;;;2.90;99.90;;;;;;5047790;28;19994;-54
2022/02/24 04:27:35;;;;;;;;;;;;;;;;;;5047834;28;19994;-53
2022/02/24 04:30:02;;;;;;;;;;;;;;;;;;5047904;28;19982;-53
2022/02/24 04:32:29;;;;;;;;;;;;;;;;;;5050409;28;19986;-54
2022/02/24 04:34:57;;;;;;;;;;;2.60;99.90;;;;;;5051057;28;20076;-53
2022/02/24 04:37:24;;;;;;;;;;;;;;;;;;5042258;28;19924;-54
2022/02/24 04:39:51;;;;;;;;;;;;;;;;;;5051438;28;19932;-53
2022/02/24 04:42:18;;;;;;;;;;;2.60;99.90;;;;;;5051607;28;20357;-54
2022/02/24 04:44:45;;;;;;;;;;;;;;;;;;5051191;28;19925;-53
2022/02/24 04:47:12;;;;;;;;;;;;;;;;;;5074662;23;19998;-49
2022/02/24 04:49:39;;;;;;;;;;;;;;;;;;5052960;28;19970;-49
2022/02/24 04:52:06;;;;;;;;;;;;;;;;;;5049745;28;20400;-49
2022/02/24 04:54:34;;;;;;;;;;;2.80;99.90;;;;;;5053412;28;19924;-49
2022/02/24 04:57:01;;;;;;;;;;;2.90;99.90;;;;;;5053121;28;19925;-49
2022/02/24 04:59:27;;;;;;;;;;;;;;;;;;5053208;28;19925;-49
2022/02/24 05:01:54;;;;;;;;;;;;;;;;;;5045311;28;19929;-49
2022/02/24 05:04:21;;;;;;;;;;;;;;;;;;5052665;28;20395;-49
2022/02/24 05:06:49;;;;;;;;;;;;;;;;;;5033455;28;19975;-48
2022/02/24 05:09:16;;;;;;;;;;;;;;;;;;5033625;28;19965;-49
2022/02/24 05:11:43;;;;;;;;;;;;;;;;;;5048057;28;19925;-49
2022/02/24 05:14:10;;;;;;;;;;;;;;;;;;5052864;28;19925;-49
2022/02/24 05:16:36;;;;;;;;;;;;;;;;;;5053019;28;20392;-49
2022/02/24 05:19:05;;;;;;;;;;;2.80;99.90;;;;;;5053183;28;19978;-49
2022/02/24 05:21:32;;;;;;;;;;;;;;;;;;5038551;28;19932;-49
2022/02/24 05:23:59;;;;;;;;;;;;;;;;;;5033239;28;19925;-49
2022/02/24 05:26:26;;;;;;;;;;;2.70;99.90;;;;;;5033263;28;19929;-49
2022/02/24 05:28:53;;;;;;;;;;;;;;;;;;5032988;28;20454;-49
2022/02/24 05:31:20;;;;;;;;;;;;;;;;;;5044845;28;19978;-49
2022/02/24 05:33:47;;;;;;;;;;;;;;;;;;5046833;28;20010;-48
2022/02/24 05:36:14;;;;;;;;;;;;;;;;;;5048354;28;19974;-49
2022/02/24 05:38:41;;;;;;;;;;;;;;;;;;5051539;28;20296;-49
2022/02/24 05:41:09;;;;;;;;;;;2.20;99.90;;;;;;5045868;28;19979;-49
2022/02/24 05:43:36;;;;;;;;;;;2.40;99.90;;;;;;5034183;28;20299;-48
2022/02/24 05:46:03;;;;;;;;;;;;;;;;;;5037616;28;19979;-49
2022/02/24 05:48:30;;;;;;;;;;;2.30;99.90;;;;;;5035206;28;19925;-48
2022/02/24 05:50:57;;;;;;;;;;;;;;;;;;5049337;28;20015;-48
2022/02/24 05:53:23;;;;;;;;;;;2.30;99.90;;;;;;5045038;28;19925;-49
2022/02/24 05:55:50;;;;;;;;;;;;;;;;;;5032420;28;19956;-48
2022/02/24 05:58:17;;;;;;;;;;;;;;;;;;5032706;28;19944;-49
2022/02/24 06:00:45;;;;;;;;;;;;;;;;;;5041360;28;19924;-49
2022/02/24 06:03:12;;;;;;;;;;;;;;;;;;5051500;28;19925;-49
2022/02/24 06:05:39;;;;;;;;;;;;;;;;;;5045836;28;20310;-49
2022/02/24 06:08:06;;;;;;;;;;;;;;;;;;5034620;28;19979;-49
2022/02/24 06:10:34;;;;;;;;;;;2.50;99.90;;;;;;5051136;28;19970;-49
2022/02/24 06:13:01;;;;;;;;;;;;;;;;;;5039343;28;20563;-48
2022/02/24 06:15:30;;;;;;;;;;;2.50;99.90;;;;;;5041043;28;19972;-49
2022/02/24 06:17:58;;;;;;;;;;;2.50;99.90;;;;;;5033713;28;19929;-49
2022/02/24 06:20:25;;;;;;;;;;;;;;;;;;5042454;28;20019;-48
2022/02/24 06:22:53;;;;;;;;;;;;;;;;;;5035024;28;19986;-49
2022/02/24 06:25:20;;;;;;;;;;;;;;;;;;5033017;28;20427;-49
2022/02/24 06:27:49;;;;;;;;;;;2.70;99.90;;;;;;5032414;28;19975;-49
2022/02/24 06:30:16;;;;;;;;;;;;;;;;;;5034971;28;19933;-49
2022/02/24 06:32:42;;;;;;;;;;;2.90;99.90;;;;;;5031956;28;20358;-49
2022/02/24 06:35:09;;;;;;;;;;;3.00;99.90;;;;;;5039848;28;19933;-49
2022/02/24 06:37:37;;;;;;;;;;;;;;;;;;5051865;28;20307;-49
2022/02/24 06:40:04;;;;;;;;;;;;;;;;;;5051423;28;20400;-49
2022/02/24 06:42:32;;;;;;;;;;;;;;;;;;5050204;28;19937;-49
2022/02/24 06:44:59;;;;;;;;;;;;;;;;;;5043788;28;19948;-49
2022/02/24 06:47:44;;;;;;;;;;;3.50;99.90;;;;;;5036019;28;19925;-49
2022/02/24 06:50:11;;;;;;;;;;;;;;;;;;5036659;28;19982;-49
2022/02/24 06:52:38;;;;;;;;;;;;;;;;;;5035124;28;19995;-49
2022/02/24 06:55:05;;;;;;;;;;;;;;;;;;5049117;28;19936;-49
2022/02/24 06:57:32;;;;;;;;;;;;;;;;;;5050883;28;19929;-49
2022/02/24 07:00:00;;;;;;;;;;;4.30;99.90;;;;;;5051201;28;19970;-49
2022/02/24 07:02:28;;;;;;;;;;;;;;;;;;5048635;28;19929;-49
2022/02/24 07:04:55;;;;;;;;;;;;;;;;;;5040009;28;19932;-49
2022/02/24 07:07:22;;;;;;;;;;;;;;;;;;5042256;28;20280;-49
2022/02/24 07:09:49;;;;;;;;;;;;;;;;;;5034573;28;19971;-49
2022/02/24 07:12:16;;;;;;;;;;;;;;;;;;5030153;28;20396;-49
2022/02/24 07:14:43;;;;;;;;;;;;;;;;;;5046326;28;19994;-49
2022/02/24 07:17:10;;;;;;;;;;;;;;;;;;5039979;28;19925;-49
2022/02/24 07:19:37;;;;;;;;;;;;;;;;;;5049297;28;20296;-49
2022/02/24 07:22:04;;;;;;;;;;;;;;;;;;5049216;28;19925;-49
2022/02/24 07:24:31;;;;;;;;;;;;;;;;;;5030273;28;19937;-49
2022/02/24 07:26:58;;;;;;;;;;;;;;;;;;5031355;28;19936;-48
2022/02/24 07:29:25;;;;;;;;;;;;;;;;;;5040324;28;19925;-49
2022/02/24 07:31:52;;;;;;;;;;;;;;;;;;5031125;28;19925;-49
2022/02/24 07:34:20;;;;;;;;;;;8.10;99.90;;;;;;5031771;28;19945;-48
2022/02/24 07:36:49;;;;;;;;;;;;;;;;;;5033702;28;19975;-49
2022/02/24 07:39:16;;;;;;;;;;;8.80;99.90;;;;;;5048339;28;19929;-49
2022/02/24 07:41:43;;;;;;;;;;;;;;;;;;5037401;28;20062;-49
2022/02/24 07:44:11;;;;;;;;;;;9.60;99.90;;;;;;5039063;28;19925;-48
2022/02/24 07:46:38;;;;;;;;;;;;;;;;;;5037311;28;19928;-48
2022/02/24 07:49:07;;;;;;;;;;;9.10;99.90;;;;;;5040069;28;19959;-49
2022/02/24 07:51:34;;;;;;;;;;;;;;;;;;5032671;28;19991;-49
2022/02/24 07:54:02;;;;;;;;;;;9.30;99.90;;;;;;5033347;28;20300;-49
2022/02/24 07:56:29;;;;;;;;;;;8.90;99.90;;;;;;5030241;28;19933;-50
2022/02/24 07:58:56;;;;;;;;;;;8.40;99.90;;;;;;5041770;28;20470;-49
2022/02/24 08:01:24;;;;;;;;;;;;;;;;;;5035492;28;19929;-49
2022/02/24 08:03:52;;;;;;;;;;;;;;;;;;5038373;28;20028;-49
2022/02/24 08:06:19;;;;;;;;;;;;;;;;;;5052099;28;20367;-49
2022/02/24 08:08:47;;;;;;;;;;;;;;;;;;5053982;28;20315;-49
2022/02/24 08:11:15;;;;;;;;;;;9.20;99.90;;;;;;5044112;28;19964;-49
2022/02/24 08:13:42;;;;;;;;;;;8.80;99.90;;;;;;5047709;28;19925;-49
2022/02/24 08:16:09;;;;;;;;;;;8.80;99.90;;;;;;5050369;28;19925;-48
2022/02/24 08:18:36;;;;;;;;;;;;;;;;;;5046908;28;19962;-49
2022/02/24 08:21:03;;;;;;;;;;;8.40;99.90;;;;;;5053420;28;19932;-50
2022/02/24 08:23:30;;;;;;;;;;;;;;;;;;5052042;28;19979;-49
2022/02/24 08:25:57;;;;;;;;;;;;;;;;;;5053774;28;19924;-49
2022/02/24 08:28:25;;;;;;;;;;;8.70;99.90;;;;;;5052448;28;19925;-50
2022/02/24 08:30:52;;;;;;;;;;;;;;;;;;5051877;28;19935;-50
2022/02/24 08:33:20;;;;;;;;;;;;;;;;;;5047315;28;19928;-50
2022/02/24 08:35:46;;;;;;;;;;;9.00;99.90;;;;;;5053228;28;20024;-50
2022/02/24 08:38:13;;;;;;;;;;;8.30;99.90;;;;;;5053307;28;19987;-50
2022/02/24 08:40:40;;;;;;;;;;;;;;;;;;5053322;28;19925;-50
2022/02/24 08:43:08;;;;;;;;;;;;;;;;;;5052593;28;20008;-51
2022/02/24 08:45:35;;;;;;;;;;;;;;;;;;5052563;28;19929;-50
2022/02/24 08:48:04;;;;;;;;;;;10.90;99.90;;;;;;5048551;28;19932;-50
2022/02/24 08:50:31;;;;;;;;;;;;;;;;;;5052364;28;19933;-50
2022/02/24 08:52:58;;;;;;;;;;;;;;;;;;5052542;28;19929;-50
2022/02/24 08:55:25;;;;;;;;;;;9.30;99.90;;;;;;5050901;28;19931;-50
2022/02/24 08:57:52;;;;;;;;;;;;;;;;;;5052859;28;20461;-50
2022/02/24 09:00:19;;;;;;;;;;;;;;;;;;5051836;28;19925;-50
2022/02/24 09:02:46;;;;;;;;;;;;;;;;;;5052020;28;19986;-50
2022/02/24 09:05:14;;;;;;;;;;;12.10;99.90;;;;;;5052463;28;19925;-50
2022/02/24 09:07:41;;;;;;;;;;;13.60;99.90;;;;;;5052878;28;19932;-51
2022/02/24 09:10:10;;;;;;;;;;;;;;;;;;5052663;28;20354;-50
2022/02/24 09:12:37;;;;;;;;;;;17.50;99.90;;;;;;5051847;28;19997;-50
2022/02/24 09:15:04;;;;;;;;;;;;;;;;;;5040994;28;19962;-51
2022/02/24 09:17:34;;;;;;;;;;;19.30;99.90;;;;;;5050071;28;19983;-51
2022/02/24 09:20:01;;;;;;;;;;;;;;;;;;5050509;28;19972;-50
2022/02/24 09:22:28;;;;;;;;;;;;;;;;;;5042058;28;19990;-50
2022/02/24 09:24:56;;;;;;;;;;;20.60;99.90;;;;;;5052575;28;19924;-50
2022/02/24 09:27:24;;;;;;;;;;;;;;;;;;5053470;28;19986;-51
2022/02/24 09:29:51;;;;;;;;;;;20.60;99.90;;;;;;5052685;28;19994;-51
2022/02/24 09:32:18;;;;;;;;;;;21.10;99.90;;;;;;5052901;28;19990;-50
2022/02/24 09:34:45;;;;;;;;;;;;;;;;;;5052595;28;19943;-50
2022/02/24 09:37:12;;;;;;;;;;;19.60;99.90;;;;;;5052893;28;20011;-51
2022/02/24 09:39:38;;;;;;;;;;;20.60;99.90;;;;;;5052542;28;19967;-50
2022/02/24 09:42:07;;;;;;;;;;;20.80;99.90;;;;;;5052777;28;19998;-50
2022/02/24 09:44:34;;;;;;;;;;;20.10;99.90;;;;;;5052787;28;19928;-50
2022/02/24 09:47:01;;;;;;;;;;;;;;;;;;5052743;28;19929;-50
2022/02/24 09:49:29;;;;;;;;;;;17.00;99.90;;;;;;5052470;28;19979;-51
2022/02/24 09:51:56;;;;;;;;;;;17.70;99.90;;;;;;5052292;28;20006;-51
2022/02/24 09:54:23;;;;;;;;;;;18.30;99.90;;;;;;5052199;28;20358;-51
2022/02/24 09:56:50;;;;;;;;;;;;;;;;;;5052401;28;19929;-50
2022/02/24 09:59:17;;;;;;;;;;;;;;;;;;5051989;28;19924;-50
2022/02/24 10:01:45;;;;;;;;;;;18.20;99.90;;;;;;5052531;28;19991;-51
2022/02/24 10:04:12;;;;;;;;;;;18.30;99.90;;;;;;5051694;28;19933;-51
2022/02/24 10:06:39;;;;;;;;;;;;;;;;;;5051438;28;20010;-51
2022/02/24 10:09:07;;;;;;;;;;;17.30;99.90;;;;;;5051661;28;20376;-51
2022/02/24 10:11:35;;;;;;;;;;;16.40;99.90;;;;;;5051253;28;19978;-50
2022/02/24 10:14:02;;;;;;;;;;;;;;;;;;5050382;28;20020;-51
2022/02/24 10:16:29;;;;;;;;;;;17.30;99.90;;;;;;5050036;28;19936;-50
2022/02/24 10:18:56;;;;;;;;;;;;;;;;;;5052054;28;20397;-51
2022/02/24 10:21:23;;;;;;;;;;;;;;;;;;5051735;28;19932;-50
2022/02/24 10:23:53;;;;;;;;;;;18.40;99.90;;;;;;5051655;28;19998;-50
2022/02/24 10:26:20;;;;;;;;;;;;;;;;;;5051556;28;19971;-50
2022/02/24 10:28:49;;;;;;;;;;;17.60;99.90;;;;;;5051417;28;19925;-50
2022/02/24 10:31:16;;;;;;;;;;;;;;;;;;5051860;28;19925;-51
2022/02/24 10:33:43;;;;;;;;;;;;;;;;;;5051493;28;20422;-50
2022/02/24 10:36:10;;;;;;;;;;;;;;;;;;5051984;28;19929;-51
2022/02/24 10:38:37;;;;;;;;;;;18.80;99.90;;;;;;5047506;28;19991;-50
2022/02/24 10:41:04;;;;;;;;;;;;;;;;;;5041441;28;19979;-50
2022/02/24 10:43:32;;;;;;;;;;;18.50;99.90;;;;;;5035518;28;19933;-51
2022/02/24 10:46:00;;;;;;;;;;;18.60;99.90;;;;;;5047580;28;19932;-50
2022/02/24 10:48:27;;;;;;;;;;;17.40;99.90;;;;;;5063606;23;20387;-55
2022/02/24 10:50:55;;;;;;;;;;;;;;;;;;5044799;28;19969;-54
2022/02/24 10:53:22;;;;;;;;;;;;;;;;;;5036562;28;19955;-55
2022/02/24 10:56:00;;;;;;;;;;;15.40;99.90;;;;;;5037325;28;19925;-55
2022/02/24 10:58:31;;;;;;;;;;;15.80;99.90;;;;;;5041863;28;20376;-55
2022/02/24 11:00:58;;;;;;;;;;;;;;;;;;5032388;28;19941;-55
2022/02/24 11:03:25;;;;;;;;;;;;;;;;;;5039726;28;19932;-55
2022/02/24 11:05:53;;;;;;;;;;;15.40;99.90;;;;;;5043910;28;19931;-55
2022/02/24 11:08:20;;;;;;;;;;;;;;;;;;5029332;28;20024;-54
2022/02/24 11:10:47;;;;;;;;;;;;;;;;;;5038384;28;20316;-55
2022/02/24 11:13:15;;;;;;;;;;;15.40;99.90;;;;;;5031593;28;19987;-54
2022/02/24 11:15:41;;;;;;;;;;;14.90;99.90;;;;;;5029353;28;19976;-55
2022/02/24 11:18:09;;;;;;;;;;;;;;;;;;5030384;28;19925;-55
2022/02/24 11:20:35;;;;;;;;;;;15.70;99.90;;;;;;5037821;28;20028;-55
2022/02/24 11:23:02;;;;;;;;;;;;;;;;;;5039030;28;19994;-55
2022/02/24 11:25:29;;;;;;;;;;;;;;;;;;5047345;28;20002;-55
2022/02/24 11:27:58;;;;;;;;;;;14.30;99.90;;;;;;5048654;28;19925;-55
2022/02/24 11:30:28;;;;;;;;;;;14.00;99.90;;;;;;5039722;28;20411;-55
2022/02/24 11:32:55;;;;;;;;;;;;;;;;;;5029564;28;19928;-55
2022/02/24 11:35:22;;;;;;;;;;;;;;;;;;5027975;28;20045;-55
2022/02/24 11:37:49;;;;;;;;;;;;;;;;;;5028971;28;19925;-54
2022/02/24 11:40:20;;;;;;;;;;;14.50;99.90;;;;;;5033629;28;20366;-55
2022/02/24 11:43:00;;;;;;;;;;;14.10;99.90;;;;;;5033082;28;19925;-55
2022/02/24 11:45:27;;;;;;;;;;;;;;;;;;5051793;28;20002;-55
2022/02/24 11:47:59;;;;;;;;;;;14.80;99.90;;;;;;5052728;28;19924;-55
2022/02/24 11:50:30;;;;;;;;;;;14.80;99.90;;;;;;5052475;28;19925;-54
2022/02/24 11:52:57;;;;;;;;;;;;;;;;;;5053307;28;20179;-55
2022/02/24 11:55:24;;;;;;;;;;;;;;;;;;5048033;28;19925;-55
2022/02/24 11:57:51;;;;;;;;;;;;;;;;;;5041422;28;19924;-55
2022/02/24 12:00:18;;;;;;;;;;;14.30;99.90;;;;;;5049074;28;20448;-55
2022/02/24 12:02:46;;;;;;;;;;;14.80;99.90;;;;;;5041962;28;19946;-55
2022/02/24 12:05:19;;;;;;;;;;;14.90;99.90;;;;;;5039188;28;20028;-55
2022/02/24 12:07:46;;;;;;;;;;;;;;;;;;5042241;28;20356;-55
2022/02/24 12:10:13;;;;;;;;;;;;;;;;;;5046090;28;19994;-56
2022/02/24 12:12:40;;;;;;;;;;;;;;;;;;5034817;28;19925;-55
2022/02/24 12:15:18;;;;;;;;;;;14.20;99.90;;;;;;5040340;28;19925;-54
2022/02/24 12:17:46;;;;;;;;;;;14.00;99.90;;;;;;5036433;28;19968;-55
2022/02/24 12:20:22;;;;;;;;;;;13.70;99.90;;;;;;5040449;28;20471;-55
2022/02/24 12:22:50;;;;;;;;;;;12.70;99.90;;;;;;5035092;28;19952;-56
2022/02/24 12:25:17;;;;;;;;;;;12.30;99.90;;;;;;5043974;28;20099;-54
2022/02/24 12:27:46;;;;;;;;;;;;;;;;;;5051815;28;19978;-54
2022/02/24 12:30:18;;;;;;;;;;;12.50;99.90;;;;;;5049940;28;20031;-54
2022/02/24 12:32:47;;;;;;;;;;;12.90;99.90;;;;;;5051117;28;19927;-55
2022/02/24 12:35:14;;;;;;;;;;;;;;;;;;5048221;28;19936;-55
2022/02/24 12:37:43;;;;;;;;;;;12.20;99.90;;;;;;5043477;28;19974;-55
2022/02/24 12:40:10;;;;;;;;;;;;;;;;;;5041643;28;20023;-55
2022/02/24 12:42:37;;;;;;;;;;;11.60;99.90;;;;;;5051475;28;19986;-54
2022/02/24 12:45:05;;;;;;;;;;;11.80;99.90;;;;;;5049909;28;19991;-55
2022/02/24 12:47:32;;;;;;;;;;;11.90;99.90;;;;;;5050685;28;20352;-54
2022/02/24 12:49:59;;;;;;;;;;;;;;;;;;5050929;28;20296;-55
2022/02/24 12:52:29;;;;;;;;;;;12.20;99.90;;;;;;5049993;28;20337;-55
2022/02/24 12:54:56;;;;;;;;;;;;;;;;;;5050312;28;20272;-54
2022/02/24 12:57:25;;;;;;;;;;;12.20;99.90;;;;;;5043288;28;19932;-55
2022/02/24 12:59:52;;;;;;;;;;;;;;;;;;5050027;28;19948;-54
2022/02/24 13:02:19;;;;;;;;;;;;;;;;;;5050867;28;20004;-55
2022/02/24 13:04:46;;;;;;;;;;;12.50;99.90;;;;;;5051053;28;19932;-54
2022/02/24 13:09:42;;;;;;;;;;;;;;;;;;5042469;28;20272;-54
2022/02/24 13:44:30;;;;;;;;;;;;;;;;;;5051095;28;19928;-53
2022/02/24 13:46:58;;;;;;;;;;;;;;;;;;5049435;28;19933;-53
2022/02/24 13:49:32;;;;;;;;;;;12.60;99.90;;;;;;5050540;28;19925;-54
2022/02/24 13:51:59;;;;;;;;;;;13.00;99.90;;;;;;5050309;28;19975;-53
2022/02/24 13:54:26;;;;;;;;;;;;;;;;;;5050461;28;19931;-53
2022/02/24 13:56:54;;;;;;;;;;;13.00;99.90;;;;;;5050245;28;19986;-53
2022/02/24 13:59:21;;;;;;;;;;;;;;;;;;5045555;28;19970;-54
2022/02/24 14:01:50;;;;;;;;;;;;;;;;;;5049665;28;20532;-54
2022/02/24 14:04:18;;;;;;;;;;;12.80;99.90;;;;;;5049700;28;19924;-54
2022/02/24 14:06:46;;;;;;;;;;;;;;;;;;5050303;28;19931;-53
2022/02/24 14:09:13;;;;;;;;;;;;;;;;;;5048020;28;20028;-54
2022/02/24 14:11:40;;;;;;;;;;;;;;;;;;5049896;28;19929;-54
2022/02/24 14:14:07;;;;;;;;;;;;;;;;;;5050107;28;19925;-55
2022/02/24 14:16:35;;;;;;;;;;;13.50;99.90;;;;;;5047822;28;19983;-53
2022/02/24 14:19:01;;;;;;;;;;;13.00;99.90;;;;;;5050334;28;19929;-53
2022/02/24 14:21:28;;;;;;;;;;;;;;;;;;5049358;28;19929;-53
2022/02/24 14:23:55;;;;;;;;;;;;;;;;;;5048773;28;20434;-54
2022/02/24 14:26:22;;;;;;;;;;;13.40;99.90;;;;;;5049405;28;19936;-53
2022/02/24 14:28:50;;;;;;;;;;;;;;;;;;5049498;28;19978;-53
2022/02/24 14:31:18;;;;;;;;;;;;;;;;;;5050056;28;19929;-53
2022/02/24 14:33:45;;;;;;;;;;;;;;;;;;5044916;28;19925;-55
2022/02/24 14:36:13;;;;;;;;;;;13.40;99.90;;;;;;5050248;28;20409;-53
2022/02/24 14:38:40;;;;;;;;;;;;;;;;;;5049567;28;19932;-53
2022/02/24 14:41:08;;;;;;;;;;;;;;;;;;5049803;28;20273;-54
2022/02/24 14:43:35;;;;;;;;;;;;;;;;;;5049478;28;20392;-53
2022/02/24 14:46:02;;;;;;;;;;;;;;;;;;5049983;28;19979;-54
2022/02/24 14:48:31;;;;;;;;;;;13.40;99.90;;;;;;5049298;28;19968;-54
2022/02/24 14:50:58;;;;;;;;;;;;;;;;;;5050136;28;19928;-54
2022/02/24 14:53:25;;;;;;;;;;;;;;;;;;5049716;28;19955;-54
2022/02/24 14:55:52;;;;;;;;;;;;;;;;;;5049765;28;20055;-54
2022/02/24 14:58:19;;;;;;;;;;;;;;;;;;5047178;28;19933;-54
2022/02/24 15:00:46;;;;;;;;;;;;;;;;;;5045175;28;19933;-54
2022/02/24 15:03:14;;;;;;;;;;;13.30;99.90;;;;;;5048035;28;19928;-54
2022/02/24 15:05:41;;;;;;;;;;;12.90;99.90;;;;;;5049128;28;19940;-54
2022/02/24 15:08:09;;;;;;;;;;;;;;;;;;5047365;28;19925;-53
2022/02/24 15:10:36;;;;;;;;;;;;;;;;;;5049112;28;19925;-54
2022/02/24 15:13:03;;;;;;;;;;;;;;;;;;5049174;28;19970;-54
2022/02/24 15:15:30;;;;;;;;;;;;;;;;;;5048191;28;19972;-54
2022/02/24 15:17:58;;;;;;;;;;;13.50;99.90;;;;;;5049226;28;19995;-54
2022/02/24 15:20:26;;;;;;;;;;;14.10;99.90;;;;;;5049219;28;19951;-54
2022/02/24 15:22:53;;;;;;;;;;;;;;;;;;5046274;28;19978;-54
2022/02/24 15:25:20;;;;;;;;;;;;;;;;;;5045029;28;19943;-54
2022/02/24 15:27:48;;;;;;;;;;;13.70;99.90;;;;;;5048089;28;19928;-54
2022/02/24 15:30:15;;;;;;;;;;;13.30;99.90;;;;;;5032626;28;20010;-54
2022/02/24 15:32:42;;;;;;;;;;;13.40;99.90;;;;;;5046307;28;20421;-54
2022/02/24 15:35:09;;;;;;;;;;;13.90;99.90;;;;;;5042708;28;19967;-54
2022/02/24 15:37:36;;;;;;;;;;;;;;;;;;5031618;28;19925;-54
2022/02/24 15:40:09;;;;;;;;;;;14.20;99.90;;;;;;5032857;28;19937;-54
2022/02/24 15:42:36;;;;;;;;;;;14.50;99.90;;;;;;5040391;28;19925;-53
2022/02/24 15:45:03;;;;;;;;;;;14.10;99.90;;;;;;5034666;28;19925;-54
2022/02/24 15:47:30;;;;;;;;;;;;;;;;;;5034791;28;19956;-54
2022/02/24 15:49:58;;;;;;;;;;;;;;;;;;5036622;28;20391;-54
2022/02/24 15:52:25;;;;;;;;;;;;;;;;;;5035048;28;20289;-53
2022/02/24 15:54:52;;;;;;;;;;;;;;;;;;5047169;28;20319;-53
2022/02/24 15:57:19;;;;;;;;;;;;;;;;;;5045650;28;19937;-54
2022/02/24 15:59:48;;;;;;;;;;;13.50;99.90;;;;;;5048433;28;20344;-54
2022/02/24 16:02:15;;;;;;;;;;;;;;;;;;5048535;28;19963;-54
2022/02/24 16:04:42;;;;;;;;;;;;;;;;;;5044966;28;20002;-54
2022/02/24 16:07:09;;;;;;;;;;;13.30;99.90;;;;;;5034179;28;19991;-53
2022/02/24 16:09:36;;;;;;;;;;;;;;;;;;5043977;28;20311;-54
2022/02/24 16:12:03;;;;;;;;;;;;;;;;;;5039737;28;19929;-54
2022/02/24 16:14:31;;;;;;;;;;;;;;;;;;5037903;28;20260;-53
2022/02/24 16:16:58;;;;;;;;;;;;;;;;;;5041629;28;20008;-54
2022/02/24 16:19:25;;;;;;;;;;;;;;;;;;5028023;28;19925;-53
2022/02/24 16:21:53;;;;;;;;;;;;;;;;;;5029203;28;19933;-54
2022/02/24 16:24:20;;;;;;;;;;;;;;;;;;5040923;28;20391;-53
2022/02/24 16:26:49;;;;;;;;;;;13.40;99.90;;;;;;5030873;28;19976;-54